Terminal Aerodrome Forecast
Issued by NWS Pueblo, CO

Home | Current Version | Previous Version | Text Only | Print | Product List | Glossary On
Versions: 1 2 3 4 5 6 7 8 9 10 11 12 13 14 15 16 17 18 19 20 21 22 23 24 25 26 27 28 29 30 31 32 33 34 35 36 37
000
FTUS45 KPUB 291120
TAFCOS
TAF
KCOS 291120Z 2912/3012 34006KT P6SM SKC
     FM291600 02010KT P6SM FEW140
     FM292200 13010KT P6SM VCTS SCT080CB BKN140
     FM300300 35008KT P6SM SCT120 SCT200=

USA.gov is the U.S. government's official web portal to all federal, state and local government web resources and services.